罗盘
风向 的 风向 080°
风: 4 kt, 2 beaufort

添加一条跑道以查看侧风和逆风信息。

添置 跑道
0 6.000 12.000 18.000 24.000 30.000
BKN 13.000 ft
BKN 24.000 ft
METAR ETND 171020Z 08004KT 9999 BKN130 BKN240 27/16 Q1011 BLU

METAR Metelen UL - DE-0389

Metelen UL是格羅瑙,德国中的小机场。 视场标高为160 ft。 该领域的国际民航组织标志是DE-0389.

这份报告是针对2022年8月17日 12:20, 当地时间在Diepholz Air Base进行的。

机场观察

风向为080°,速度为4 kt。

可见度为10 km 或者更多。

有碎云在13.000 ft的高度 和 碎云在24.000 ft的高度。 破损或更高的上限为13.000 ft。

温度和风寒是27 °C。 热指数为28。 露点为16 °C,相对湿度为51%。 海平面上的气压为1011 hPa (QNH)。

白天

今天,太阳从06:18升起,在20:52降落。 这适用于Metelen UL,世界夏令时可能有所不同。 当地时间与世界标准时间之间的时差为+2 小时。 夏令时目前正在进行中。

公司介绍

我们没有关于这个机场的公司信息。

体会

到Vliegles.nl去找飞行课程,跳伞和其他飞行体验。 浏览页面,了解Metelen UL附近所有可用的活动。 你也可以使用搜索功能来寻找你所在地附近的特定飞行课程、跳伞或其他飞行体验。

乌云

13.000 ft BKN 碎云
24.000 ft BKN 碎云

温度 & 天气

温度 27 °C
露点 16 °C
相对湿度 51%
热度指数 28 °C
Kp-index 2  

白天

日出
06:12
中午
13:30
日落
20:48 (8h 00m)

小工具

你想在你的网站上有一个关于Metelen UL的当前航空天气(METAR)的小部件吗?

</> 显示HTML代码

我们和第三方通过cookies跟踪您在我们网站上的上网行为。如果您继续,我们认为您同意我们的cookie政策。 了解更多